createdAt,value
2022-09-28T00:01:25.061Z,94206.16
2022-09-28T00:03:54.532Z,94201.91
2022-09-28T00:06:24.512Z,94204.28
2022-09-28T00:08:51.598Z,94205.31
2022-09-28T00:11:20.764Z,94203.22
2022-09-28T00:13:51.799Z,94199.72
2022-09-28T00:16:20.796Z,94185.13
2022-09-28T00:18:47.423Z,94187.81
2022-09-28T00:21:17.434Z,94176.66
2022-09-28T00:24:03.272Z,94177.19
2022-09-28T00:26:32.961Z,94184.59
2022-09-28T00:29:01.603Z,94180.59
2022-09-28T00:31:32.663Z,94172.41
2022-09-28T00:34:00.795Z,94186.72
2022-09-28T00:36:31.720Z,94187.25
2022-09-28T00:38:59.876Z,94197.84
2022-09-28T00:41:28.016Z,94201.56
2022-09-28T00:44:26.416Z,94205.72
2022-09-28T00:47:07.398Z,94202.00
2022-09-28T00:49:38.639Z,94214.72
2022-09-28T00:52:09.649Z,94205.44
2022-09-28T00:54:36.645Z,94203.84
2022-09-28T00:57:04.259Z,94205.69
2022-09-28T00:59:33.374Z,94210.44
2022-09-28T01:02:01.306Z,94193.16
2022-09-28T01:04:30.174Z,94182.28
2022-09-28T01:06:58.950Z,94169.59
2022-09-28T01:09:27.609Z,94176.78
2022-09-28T01:11:55.237Z,94177.06
2022-09-28T01:14:25.721Z,94178.63
2022-09-28T01:17:06.749Z,94182.84
2022-09-28T01:19:58.915Z,94168.53
2022-09-28T01:22:34.578Z,94175.97
2022-09-28T01:25:16.749Z,94176.97
2022-09-28T01:27:50.463Z,94175.91
2022-09-28T01:30:19.914Z,94162.91
2022-09-28T01:33:07.172Z,94172.94
2022-09-28T01:35:43.382Z,94162.56
2022-09-28T01:38:17.509Z,94159.56
2022-09-28T01:40:46.297Z,94162.97
2022-09-28T01:43:19.122Z,94170.41
2022-09-28T01:45:51.625Z,94171.94
2022-09-28T01:48:25.613Z,94163.94
2022-09-28T01:50:57.954Z,94170.47
2022-09-28T01:53:31.851Z,94174.16
2022-09-28T01:56:04.169Z,94182.56
2022-09-28T01:58:37.895Z,94176.97
2022-09-28T02:01:13.184Z,94180.66
2022-09-28T02:03:46.899Z,94183.25
2022-09-28T02:06:22.280Z,94181.88
2022-09-28T02:08:56.550Z,94190.88
2022-09-28T02:11:23.750Z,94199.56
2022-09-28T02:13:52.789Z,94207.50
2022-09-28T02:16:39.411Z,94202.47
2022-09-28T02:19:08.842Z,94215.97
2022-09-28T02:22:27.532Z,94218.06
2022-09-28T02:25:09.850Z,94225.44
2022-09-28T02:27:36.438Z,94230.75
2022-09-28T02:30:06.072Z,94225.91
2022-09-28T02:32:35.182Z,94222.72
2022-09-28T02:35:01.839Z,94226.13
2022-09-28T02:37:28.400Z,94233.81
2022-09-28T02:39:55.459Z,94242.06
2022-09-28T02:42:33.117Z,94245.47
2022-09-28T02:45:08.654Z,94241.25
2022-09-28T02:47:50.687Z,94241.81
2022-09-28T02:50:54.696Z,94252.94
2022-09-28T02:53:33.469Z,94246.28
2022-09-28T02:56:15.104Z,94248.47
2022-09-28T02:59:01.333Z,94254.31
2022-09-28T03:01:30.932Z,94253.50
2022-09-28T03:04:00.193Z,94259.28
2022-09-28T03:06:26.681Z,94260.34
2022-09-28T03:09:01.057Z,94252.66
2022-09-28T03:11:36.436Z,94253.97
2022-09-28T03:14:04.254Z,94246.03
2022-09-28T03:16:32.239Z,94246.28
2022-09-28T03:18:58.895Z,94251.34
2022-09-28T03:21:25.511Z,94243.38
2022-09-28T03:23:52.047Z,94248.22
2022-09-28T03:26:19.836Z,94242.44
2022-09-28T03:28:46.797Z,94237.16
2022-09-28T03:31:13.414Z,94242.44
2022-09-28T03:33:39.960Z,94247.75
2022-09-28T03:36:08.666Z,94234.75
2022-09-28T03:38:35.492Z,94237.63
2022-09-28T03:41:02.088Z,94234.41
2022-09-28T03:43:30.502Z,94235.44
2022-09-28T03:46:00.412Z,94240.75
2022-09-28T03:48:32.421Z,94237.00
2022-09-28T03:51:05.457Z,94245.97
2022-09-28T03:53:33.056Z,94243.84
2022-09-28T03:56:08.338Z,94245.97
2022-09-28T03:58:34.891Z,94243.91
2022-09-28T04:01:03.721Z,94243.91
2022-09-28T04:03:31.196Z,94241.81
2022-09-28T04:05:58.089Z,94246.53
2022-09-28T04:08:24.653Z,94253.97
2022-09-28T04:10:51.425Z,94253.50
2022-09-28T04:13:17.980Z,94250.84
2022-09-28T04:15:53.298Z,94257.22
2022-09-28T04:18:20.432Z,94253.97
2022-09-28T04:20:48.223Z,94252.41
2022-09-28T04:23:17.684Z,94253.75
2022-09-28T04:25:47.866Z,94260.91
2022-09-28T04:28:33.034Z,94260.84
2022-09-28T04:30:59.663Z,94259.22
2022-09-28T04:33:26.204Z,94275.09
2022-09-28T04:35:52.727Z,94276.94
2022-09-28T04:38:30.872Z,94275.34
2022-09-28T04:41:06.127Z,94272.41
2022-09-28T04:43:32.682Z,94280.53
2022-09-28T04:46:02.802Z,94283.94
2022-09-28T04:48:29.638Z,94286.25
2022-09-28T04:50:57.186Z,94283.81
2022-09-28T04:53:25.068Z,94282.94
2022-09-28T04:55:59.618Z,94273.38
2022-09-28T04:58:26.765Z,94281.88
2022-09-28T05:00:54.382Z,94272.09
2022-09-28T05:03:21.166Z,94276.66
2022-09-28T05:05:49.103Z,94282.19
2022-09-28T05:08:16.257Z,94286.47
2022-09-28T05:10:43.144Z,94288.59
2022-09-28T05:13:11.623Z,94294.41
2022-09-28T05:15:39.584Z,94303.53
2022-09-28T05:18:07.367Z,94305.38
2022-09-28T05:20:39.688Z,94307.00
2022-09-28T05:23:06.230Z,94302.28
2022-09-28T05:25:33.964Z,94311.56
2022-09-28T05:28:01.822Z,94307.84
2022-09-28T05:30:28.337Z,94301.28
2022-09-28T05:32:54.910Z,94310.09
2022-09-28T05:35:21.449Z,94298.69
2022-09-28T05:37:48.178Z,94299.06
2022-09-28T05:40:15.058Z,94305.25
2022-09-28T05:42:42.368Z,94306.81
2022-09-28T05:45:10.245Z,94309.97
2022-09-28T05:47:41.113Z,94310.03
2022-09-28T05:50:11.629Z,94311.91
2022-09-28T05:52:38.865Z,94316.38
2022-09-28T05:55:06.857Z,94317.69
2022-09-28T05:57:33.472Z,94307.44
2022-09-28T06:00:00.145Z,94302.88
2022-09-28T06:02:26.802Z,94303.44
2022-09-28T06:04:53.924Z,94292.38
2022-09-28T06:07:23.903Z,94289.16
2022-09-28T06:09:50.454Z,94293.97
2022-09-28T06:12:17.067Z,94295.09
2022-09-28T06:14:44.176Z,94297.97
2022-09-28T06:17:10.732Z,94289.66
2022-09-28T06:19:37.270Z,94292.06
2022-09-28T06:22:03.823Z,94293.66
2022-09-28T06:24:30.357Z,94298.34
2022-09-28T06:26:56.913Z,94309.94
2022-09-28T06:29:23.414Z,94305.38
2022-09-28T06:31:49.924Z,94308.59
2022-09-28T06:34:17.321Z,94312.41
2022-09-28T06:36:43.966Z,94301.44
2022-09-28T06:39:10.533Z,94304.00
2022-09-28T06:41:37.069Z,94307.69
2022-09-28T06:44:03.785Z,94311.78
2022-09-28T06:46:31.476Z,94298.22
2022-09-28T06:48:58.770Z,94303.63
2022-09-28T06:51:25.296Z,94300.00
2022-09-28T06:53:53.908Z,94307.50
2022-09-28T06:56:21.087Z,94306.81
2022-09-28T06:58:48.112Z,94305.81
2022-09-28T07:01:14.746Z,94320.47
2022-09-28T07:03:41.345Z,94320.47
2022-09-28T07:06:11.441Z,94323.13
2022-09-28T07:08:38.277Z,94319.72
2022-09-28T07:11:06.951Z,94315.00
2022-09-28T07:13:49.698Z,94312.44
2022-09-28T07:16:17.423Z,94324.66
2022-09-28T07:18:44.254Z,94344.06
2022-09-28T07:21:20.266Z,94336.75
2022-09-28T07:23:54.347Z,94341.59
2022-09-28T07:26:24.032Z,94341.94
2022-09-28T07:28:51.072Z,94340.56
2022-09-28T07:31:17.720Z,94336.56
2022-09-28T07:33:44.364Z,94331.00
2022-09-28T07:36:10.881Z,94338.25
2022-09-28T07:38:38.321Z,94338.81
2022-09-28T07:41:22.528Z,94336.22
2022-09-28T07:43:49.883Z,94329.63
2022-09-28T07:46:17.581Z,94335.00
2022-09-28T07:48:45.898Z,94332.09
2022-09-28T07:51:12.649Z,94328.69
2022-09-28T07:53:39.255Z,94322.13
2022-09-28T07:56:07.997Z,94317.69
2022-09-28T07:58:36.585Z,94316.41
2022-09-28T08:01:06.522Z,94316.22
2022-09-28T08:03:33.850Z,94320.53
2022-09-28T08:06:09.877Z,94320.84
2022-09-28T08:08:36.640Z,94327.72
2022-09-28T08:11:03.641Z,94330.31
2022-09-28T08:13:31.115Z,94328.22
2022-09-28T08:16:01.582Z,94324.81
2022-09-28T08:18:28.198Z,94317.97
2022-09-28T08:21:13.285Z,94317.78
2022-09-28T08:23:39.811Z,94326.88
2022-09-28T08:26:06.710Z,94319.22
2022-09-28T08:28:33.478Z,94321.63
2022-09-28T08:31:04.706Z,94313.19
2022-09-28T08:33:31.366Z,94317.28
2022-09-28T08:35:59.283Z,94317.13
2022-09-28T08:38:28.820Z,94323.00
2022-09-28T08:41:19.136Z,94337.34
2022-09-28T08:43:54.634Z,94332.59
2022-09-28T08:46:27.012Z,94333.16
2022-09-28T08:49:24.563Z,94331.59
2022-09-28T08:52:23.381Z,94321.03
2022-09-28T08:55:02.344Z,94321.84
2022-09-28T08:57:36.263Z,94317.94
2022-09-28T09:00:09.624Z,94319.84
2022-09-28T09:02:39.804Z,94317.22
2022-09-28T09:05:13.825Z,94318.06
2022-09-28T09:07:49.009Z,94317.00
2022-09-28T09:10:36.908Z,94315.19
2022-09-28T09:13:24.992Z,94315.50
2022-09-28T09:15:51.523Z,94325.09
2022-09-28T09:18:33.250Z,94320.84
2022-09-28T09:21:09.813Z,94318.75
2022-09-28T09:23:54.217Z,94318.22
2022-09-28T09:26:39.679Z,94322.53
2022-09-28T09:29:21.410Z,94328.41
2022-09-28T09:32:17.523Z,94336.41
2022-09-28T09:35:07.727Z,94325.25
2022-09-28T09:37:34.622Z,94323.69
2022-09-28T09:40:26.370Z,94325.28
2022-09-28T09:43:29.526Z,94333.25
2022-09-28T09:46:11.823Z,94335.41
2022-09-28T09:48:41.448Z,94344.47
2022-09-28T09:51:18.483Z,94340.72
2022-09-28T09:53:52.893Z,94341.81
2022-09-28T09:56:31.650Z,94327.72
2022-09-28T09:59:06.364Z,94332.53
2022-09-28T10:01:37.773Z,94338.63
2022-09-28T10:04:07.970Z,94336.25
2022-09-28T10:06:36.618Z,94336.56
2022-09-28T10:09:45.785Z,94327.00
2022-09-28T10:12:18.856Z,94327.00
2022-09-28T10:14:46.421Z,94324.63
2022-09-28T10:17:19.772Z,94325.41
2022-09-28T10:19:46.458Z,94317.16
2022-09-28T10:22:21.532Z,94316.34
2022-09-28T10:24:51.730Z,94320.06
2022-09-28T10:27:23.974Z,94317.94
2022-09-28T10:29:59.324Z,94309.13
2022-09-28T10:32:28.295Z,94310.75
2022-09-28T10:35:31.440Z,94315.53
2022-09-28T10:38:01.804Z,94314.97
2022-09-28T10:40:37.597Z,94300.56
2022-09-28T10:43:08.262Z,94304.81
2022-09-28T10:45:37.419Z,94306.13
2022-09-28T10:48:06.141Z,94307.47
2022-09-28T10:50:32.714Z,94307.97
2022-09-28T10:53:20.581Z,94305.03
2022-09-28T10:55:59.395Z,94303.44
2022-09-28T10:58:29.387Z,94299.69
2022-09-28T11:01:02.069Z,94299.41
2022-09-28T11:03:30.476Z,94298.84
2022-09-28T11:06:01.524Z,94297.56
2022-09-28T11:08:44.578Z,94298.84
2022-09-28T11:11:16.335Z,94296.19
2022-09-28T11:13:49.889Z,94295.09
2022-09-28T11:16:44.191Z,94297.16
2022-09-28T11:19:20.220Z,94285.13
2022-09-28T11:21:46.969Z,94285.63
2022-09-28T11:24:23.666Z,94283.97
2022-09-28T11:26:52.993Z,94280.97
2022-09-28T11:29:38.929Z,94271.69
2022-09-28T11:32:06.299Z,94273.50
2022-09-28T11:34:58.057Z,94271.84
2022-09-28T11:37:27.802Z,94277.16
2022-09-28T11:40:13.303Z,94267.03
2022-09-28T11:43:10.663Z,94275.75
2022-09-28T11:45:51.056Z,94275.69
2022-09-28T11:48:23.923Z,94267.03
2022-09-28T11:50:58.489Z,94268.56
2022-09-28T11:53:37.134Z,94254.66
2022-09-28T11:56:27.000Z,94265.78
2022-09-28T11:58:58.036Z,94257.75
2022-09-28T12:01:46.474Z,94260.94
2022-09-28T12:04:19.040Z,94255.53
2022-09-28T12:07:31.464Z,94259.25
2022-09-28T12:10:10.380Z,94261.28
2022-09-28T12:12:54.289Z,94259.66
2022-09-28T12:15:26.008Z,94256.94
2022-09-28T12:18:07.819Z,94248.22
2022-09-28T12:20:40.196Z,94245.38
2022-09-28T12:23:31.044Z,94242.59
2022-09-28T12:26:14.553Z,94243.03
2022-09-28T12:28:49.849Z,94232.72
2022-09-28T12:31:54.692Z,94241.66
2022-09-28T12:34:22.176Z,94228.22
2022-09-28T12:37:33.557Z,94233.72
2022-09-28T12:40:18.306Z,94231.47
2022-09-28T12:43:06.883Z,94231.63
2022-09-28T12:46:10.836Z,94230.06
2022-09-28T12:51:57.664Z,94235.06
2022-09-28T12:54:47.324Z,94235.06
2022-09-28T12:57:48.247Z,94241.00
2022-09-28T13:00:22.249Z,94239.91
2022-09-28T13:03:29.078Z,94235.06
2022-09-28T13:06:34.320Z,94244.19
2022-09-28T13:09:20.719Z,94220.97
2022-09-28T13:12:00.000Z,94242.69
2022-09-28T13:15:05.009Z,94240.78
2022-09-28T13:17:31.491Z,94232.06
2022-09-28T13:19:59.193Z,94234.72
2022-09-28T13:23:15.053Z,94234.22
2022-09-28T13:25:47.916Z,94230.50
2022-09-28T13:28:18.664Z,94228.22
2022-09-28T13:30:46.068Z,94232.53
2022-09-28T13:33:28.914Z,94239.66
2022-09-28T13:35:55.426Z,94231.91
2022-09-28T13:38:21.905Z,94231.97
2022-09-28T13:41:06.790Z,94234.06
2022-09-28T13:43:53.537Z,94228.94
2022-09-28T13:46:36.775Z,94230.75
2022-09-28T13:49:26.907Z,94221.22
2022-09-28T13:52:05.155Z,94240.72
2022-09-28T13:55:16.681Z,94223.38
2022-09-28T13:58:04.551Z,94220.78
2022-09-28T14:00:54.227Z,94224.28
2022-09-28T14:03:43.396Z,94220.31
2022-09-28T14:06:29.992Z,94216.44
2022-09-28T14:09:15.922Z,94214.66
2022-09-28T14:11:55.014Z,94218.97
2022-09-28T14:14:26.606Z,94212.94
2022-09-28T14:17:19.311Z,94216.63
2022-09-28T14:19:52.251Z,94224.91
2022-09-28T14:22:57.818Z,94230.78
2022-09-28T14:25:27.789Z,94231.97
2022-09-28T14:28:03.353Z,94236.03
2022-09-28T14:30:41.967Z,94232.84
2022-09-28T14:33:26.615Z,94238.34
2022-09-28T14:36:05.282Z,94249.59
2022-09-28T14:39:05.642Z,94239.16
2022-09-28T14:41:36.476Z,94256.28
2022-09-28T14:44:08.500Z,94250.81
2022-09-28T14:46:40.597Z,94247.63
2022-09-28T14:49:19.764Z,94260.81
2022-09-28T14:51:58.562Z,94275.53
2022-09-28T14:54:27.703Z,94268.34
2022-09-28T14:57:03.112Z,94271.81
2022-09-28T14:59:36.225Z,94275.06
2022-09-28T15:02:13.390Z,94264.94
2022-09-28T15:04:48.883Z,94264.47
2022-09-28T15:07:28.718Z,94272.31
2022-09-28T15:09:59.831Z,94268.88
2022-09-28T15:12:28.935Z,94265.38
2022-09-28T15:14:57.425Z,94269.75
2022-09-28T15:17:29.196Z,94278.03
2022-09-28T15:20:00.840Z,94289.75
2022-09-28T15:22:27.554Z,94293.03
2022-09-28T15:25:02.000Z,94298.94
2022-09-28T15:27:38.024Z,94310.16
2022-09-28T15:30:25.442Z,94303.25
2022-09-28T15:32:56.605Z,94304.34
2022-09-28T15:35:26.561Z,94304.91
2022-09-28T15:37:55.034Z,94293.72
2022-09-28T15:40:33.675Z,94296.41
2022-09-28T15:43:00.571Z,94291.34
2022-09-28T15:45:37.062Z,94280.41
2022-09-28T15:48:43.116Z,94291.63
2022-09-28T15:51:11.597Z,94286.84
2022-09-28T15:53:51.342Z,94291.91
2022-09-28T15:56:17.881Z,94305.00
2022-09-28T15:59:13.031Z,94292.25
2022-09-28T16:01:42.484Z,94297.03
2022-09-28T16:04:33.738Z,94300.78
2022-09-28T16:07:09.371Z,94290.66
2022-09-28T16:09:55.661Z,94295.44
2022-09-28T16:12:31.256Z,94297.31
2022-09-28T16:15:03.964Z,94288.00
2022-09-28T16:17:33.642Z,94287.47
2022-09-28T16:20:18.897Z,94292.31
2022-09-28T16:22:45.969Z,94295.22
2022-09-28T16:25:19.579Z,94299.25
2022-09-28T16:27:46.234Z,94308.06
2022-09-28T16:30:27.286Z,94306.72
2022-09-28T16:33:05.798Z,94307.25
2022-09-28T16:35:50.930Z,94303.53
2022-09-28T16:38:19.023Z,94310.47
2022-09-28T16:40:50.664Z,94315.28
2022-09-28T16:43:30.280Z,94311.81
2022-09-28T16:46:04.450Z,94309.97
2022-09-28T16:48:34.308Z,94318.72
2022-09-28T16:51:00.854Z,94318.47
2022-09-28T16:53:46.072Z,94315.00
2022-09-28T16:56:13.454Z,94319.53
2022-09-28T16:58:40.151Z,94311.28
2022-09-28T17:01:09.601Z,94318.22
2022-09-28T17:03:36.296Z,94320.63
2022-09-28T17:06:06.117Z,94314.75
2022-09-28T17:08:35.392Z,94310.75
2022-09-28T17:11:24.507Z,94322.22
2022-09-28T17:13:51.913Z,94318.22
2022-09-28T17:16:42.682Z,94315.31
2022-09-28T17:19:18.128Z,94321.66
2022-09-28T17:21:44.992Z,94318.47
2022-09-28T17:24:11.551Z,94320.88
2022-09-28T17:26:38.183Z,94304.13
2022-09-28T17:29:08.720Z,94309.97
2022-09-28T17:31:35.265Z,94305.16
2022-09-28T17:34:01.834Z,94310.75
2022-09-28T17:36:30.414Z,94307.31
2022-09-28T17:38:57.288Z,94297.72
2022-09-28T17:41:24.000Z,94287.88
2022-09-28T17:43:50.537Z,94283.34
2022-09-28T17:46:28.338Z,94296.16
2022-09-28T17:48:59.571Z,94293.22
2022-09-28T17:51:31.138Z,94290.81
2022-09-28T17:53:58.727Z,94306.53
2022-09-28T17:56:29.710Z,94311.31
2022-09-28T17:59:07.462Z,94320.09
2022-09-28T18:01:37.585Z,94315.28
2022-09-28T18:04:06.654Z,94314.50
2022-09-28T18:06:37.422Z,94313.97
2022-09-28T18:09:04.970Z,94310.50
2022-09-28T18:11:32.583Z,94317.44
2022-09-28T18:13:59.189Z,94319.56
2022-09-28T18:16:27.986Z,94338.19
2022-09-28T18:18:54.956Z,94333.63
2022-09-28T18:21:21.740Z,94343.69
2022-09-28T18:23:48.587Z,94345.84
2022-09-28T18:26:16.833Z,94341.28
2022-09-28T18:28:43.413Z,94349.81
2022-09-28T18:31:12.228Z,94347.69
2022-09-28T18:33:39.442Z,94348.25
2022-09-28T18:36:07.424Z,94350.91
2022-09-28T18:38:37.910Z,94352.47
2022-09-28T18:41:16.143Z,94356.75
2022-09-28T18:43:48.876Z,94354.88
2022-09-28T18:46:18.230Z,94359.91
2022-09-28T18:48:44.955Z,94356.75
2022-09-28T18:51:12.487Z,94360.47
2022-09-28T18:53:39.786Z,94359.66
2022-09-28T18:56:08.667Z,94358.88
2022-09-28T18:58:39.891Z,94371.66
2022-09-28T19:04:00.422Z,94378.28
2022-09-28T19:06:27.751Z,94368.97
2022-09-28T19:08:57.921Z,94367.91
2022-09-28T19:11:25.323Z,94376.97
2022-09-28T19:13:53.525Z,94375.13
2022-09-28T19:16:22.481Z,94382.84
2022-09-28T19:18:51.382Z,94384.69
2022-09-28T19:21:18.089Z,94385.50
2022-09-28T19:23:49.261Z,94388.41
2022-09-28T19:26:22.594Z,94383.88
2022-09-28T19:28:49.243Z,94380.16
2022-09-28T19:31:16.276Z,94383.59
2022-09-28T19:33:43.817Z,94384.94
2022-09-28T19:36:13.570Z,94383.38
2022-09-28T19:38:40.752Z,94384.94
2022-09-28T19:41:12.399Z,94391.09
2022-09-28T19:43:40.708Z,94389.25
2022-09-28T19:46:08.246Z,94375.44
2022-09-28T19:48:35.452Z,94375.13
2022-09-28T19:51:05.024Z,94383.59
2022-09-28T19:53:36.684Z,94378.03
2022-09-28T19:56:05.398Z,94381.22
2022-09-28T19:58:34.555Z,94375.63
2022-09-28T20:01:04.569Z,94378.53
2022-09-28T20:03:30.974Z,94381.75
2022-09-28T20:05:58.650Z,94378.53
2022-09-28T20:08:26.259Z,94373.22
2022-09-28T20:10:54.583Z,94380.41
2022-09-28T20:13:21.640Z,94375.09
2022-09-28T20:15:48.377Z,94389.16
2022-09-28T20:18:15.238Z,94383.56
2022-09-28T20:20:42.586Z,94390.78
2022-09-28T20:23:09.323Z,94383.56
2022-09-28T20:25:35.927Z,94382.25
2022-09-28T20:28:02.359Z,94378.53
2022-09-28T20:30:28.764Z,94389.16
2022-09-28T20:32:55.189Z,94393.72
2022-09-28T20:35:32.253Z,94389.97
2022-09-28T20:38:07.786Z,94393.94
2022-09-28T20:40:35.257Z,94398.75
2022-09-28T20:43:01.864Z,94404.84
2022-09-28T20:45:28.307Z,94387.03
2022-09-28T20:47:54.725Z,94394.47
2022-09-28T20:50:22.029Z,94384.34
2022-09-28T20:52:48.537Z,94392.34
2022-09-28T20:55:15.009Z,94388.59
2022-09-28T20:57:41.618Z,94375.59
2022-09-28T21:00:10.409Z,94392.34
2022-09-28T21:02:36.930Z,94380.13
2022-09-28T21:05:03.529Z,94384.91
2022-09-28T21:07:29.956Z,94380.91
2022-09-28T21:09:56.363Z,94391.78
2022-09-28T21:12:25.957Z,94390.47
2022-09-28T21:14:53.710Z,94383.81
2022-09-28T21:17:20.690Z,94377.97
2022-09-28T21:19:47.106Z,94380.41
2022-09-28T21:22:13.551Z,94378.25
2022-09-28T21:24:40.050Z,94372.41
2022-09-28T21:27:06.482Z,94378.22
2022-09-28T21:29:32.905Z,94366.28
2022-09-28T21:31:59.328Z,94364.16
2022-09-28T21:34:25.778Z,94381.16
2022-09-28T21:36:52.639Z,94381.16
2022-09-28T21:39:20.101Z,94371.06
2022-09-28T21:41:46.546Z,94368.94
2022-09-28T21:44:13.014Z,94373.47
2022-09-28T21:46:39.794Z,94368.41
2022-09-28T21:49:07.434Z,94361.50
2022-09-28T21:51:34.549Z,94359.06
2022-09-28T21:54:01.092Z,94358.28
2022-09-28T21:56:27.514Z,94366.53
2022-09-28T21:58:54.000Z,94363.06
2022-09-28T22:01:21.934Z,94355.09
2022-09-28T22:03:50.591Z,94370.81
2022-09-28T22:06:21.524Z,94360.41
2022-09-28T22:08:48.870Z,94362.03
2022-09-28T22:11:16.896Z,94358.06
2022-09-28T22:13:44.759Z,94359.34
2022-09-28T22:16:12.126Z,94356.69
2022-09-28T22:18:38.606Z,94363.06
2022-09-28T22:21:15.258Z,94361.50
2022-09-28T22:23:41.691Z,94364.38
2022-09-28T22:26:13.137Z,94369.97
2022-09-28T22:28:44.243Z,94376.09
2022-09-28T22:31:10.693Z,94379.28
2022-09-28T22:33:37.157Z,94375.84
2022-09-28T22:36:03.645Z,94379.31
2022-09-28T22:38:31.756Z,94373.47
2022-09-28T22:40:58.418Z,94378.78
2022-09-28T22:43:25.771Z,94368.41
2022-09-28T22:46:10.905Z,94375.84
2022-09-28T22:48:37.789Z,94374.53
2022-09-28T22:51:06.186Z,94376.94
2022-09-28T22:53:33.394Z,94365.22
2022-09-28T22:56:01.480Z,94360.97
2022-09-28T22:58:27.953Z,94360.19
2022-09-28T23:00:56.411Z,94356.72
2022-09-28T23:03:23.202Z,94361.25
2022-09-28T23:05:56.322Z,94359.38
2022-09-28T23:08:23.529Z,94355.38
2022-09-28T23:10:50.216Z,94354.03
2022-09-28T23:13:16.883Z,94357.50
2022-09-28T23:15:43.377Z,94358.84
2022-09-28T23:18:10.229Z,94356.19
2022-09-28T23:20:36.652Z,94356.94
2022-09-28T23:23:03.140Z,94358.84
2022-09-28T23:25:29.584Z,94345.53
2022-09-28T23:27:55.999Z,94348.19
2022-09-28T23:30:23.670Z,94342.34
2022-09-28T23:32:51.745Z,94338.06
2022-09-28T23:35:18.142Z,94339.13
2022-09-28T23:37:48.751Z,94351.88
2022-09-28T23:40:15.175Z,94337.78
2022-09-28T23:42:41.540Z,94334.06
2022-09-28T23:45:08.310Z,94338.59
2022-09-28T23:47:37.340Z,94333.78
2022-09-28T23:50:04.759Z,94339.91
2022-09-28T23:52:31.228Z,94344.72
2022-09-28T23:54:57.638Z,94339.66
2022-09-28T23:57:24.045Z,94332.72
2022-09-28T23:59:50.477Z,94335.38
